Time;durP1;ratioP1;P1;durP2;ratioP2;P2;SDS_P1;SDS_P2;PMS_P1;PMS_P2;Temp;Humidity;BMP_temperature;BMP_pressure;BME280_temperature;BME280_humidity;BME280_pressure;Samples;Min_cycle;Max_cycle;Signal;HPM_P1;HPM_P2
2022/12/07 00:01:46;;;;;;;6.78;1.00;;;4.50;93.40;;;;;;5071928;28;20048;-78
2022/12/07 00:04:14;;;;;;;4.10;0.80;;;4.50;93.30;;;;;;5055164;28;20040;-76
2022/12/07 00:06:45;;;;;;;3.38;1.00;;;4.40;93.20;;;;;;5058478;28;20119;-75
2022/12/07 00:09:16;;;;;;;4.13;1.20;;;4.40;93.20;;;;;;5059177;28;20119;-77
2022/12/07 00:11:42;;;;;;;8.43;1.27;;;4.40;93.20;;;;;;5059107;28;20036;-77
2022/12/07 00:14:12;;;;;;;5.40;1.02;;;4.50;93.20;;;;;;5059114;28;20045;-77
2022/12/07 00:16:37;;;;;;;5.30;1.10;;;4.50;93.20;;;;;;5059147;28;20055;-76
2022/12/07 00:19:04;;;;;;;4.18;0.90;;;4.50;93.00;;;;;;5075840;28;20044;-76
2022/12/07 00:21:32;;;;;;;11.32;1.60;;;4.60;92.80;;;;;;5075422;28;20041;-76
2022/12/07 00:23:58;;;;;;;7.45;1.00;;;4.70;92.60;;;;;;5075365;28;20044;-76
2022/12/07 00:26:33;;;;;;;6.35;1.15;;;4.70;92.60;;;;;;5042227;28;20439;-77
2022/12/07 00:29:12;;;;;;;5.97;1.30;;;4.80;92.60;;;;;;5075418;28;20076;-79
2022/12/07 00:31:38;;;;;;;5.57;1.17;;;4.80;92.60;;;;;;5075524;28;20408;-76
2022/12/07 00:34:13;;;;;;;4.97;2.08;;;4.90;92.40;;;;;;5075525;28;20044;-76
2022/12/07 00:36:39;;;;;;;11.30;1.40;;;4.80;92.60;;;;;;5075253;28;20044;-77
2022/12/07 00:39:05;;;;;;;5.60;1.48;;;4.90;92.50;;;;;;5058509;28;20052;-76
2022/12/07 00:41:30;;;;;;;12.13;1.58;;;4.90;92.70;;;;;;5058514;28;20383;-74
2022/12/07 00:43:56;;;;;;;4.75;1.70;;;5.00;92.60;;;;;;5058220;28;20126;-77
2022/12/07 00:46:24;;;;;;;4.45;0.82;;;5.00;92.50;;;;;;5058512;28;20485;-74
2022/12/07 00:48:50;;;;;;;9.50;1.00;;;5.00;92.20;;;;;;5041664;28;20496;-77
2022/12/07 00:51:18;;;;;;;6.40;1.17;;;5.00;92.30;;;;;;5058267;28;20036;-77
2022/12/07 00:53:43;;;;;;;3.55;0.70;;;5.00;92.30;;;;;;5074876;28;20129;-76
2022/12/07 00:56:12;;;;;;;7.75;1.02;;;4.90;92.40;;;;;;5058902;28;20082;-77
2022/12/07 00:58:38;;;;;;;2.25;0.80;;;4.90;92.40;;;;;;5075071;28;20388;-78
2022/12/07 01:01:05;;;;;;;5.68;0.98;;;4.80;92.40;;;;;;5074967;28;20037;-75
2022/12/07 01:03:31;;;;;;;2.35;0.52;;;4.80;92.30;;;;;;5074546;28;20194;-77
2022/12/07 01:05:58;;;;;;;3.22;0.55;;;4.80;92.50;;;;;;5074958;28;20538;-78
2022/12/07 01:08:24;;;;;;;3.78;0.57;;;4.80;92.10;;;;;;5074880;28;20498;-76
2022/12/07 01:11:04;;;;;;;4.10;0.65;;;4.90;91.40;;;;;;5058102;28;20400;-77
2022/12/07 01:13:31;;;;;;;5.13;0.80;;;4.90;90.70;;;;;;5074675;28;20048;-77
2022/12/07 01:16:00;;;;;;;3.63;0.82;;;4.90;90.20;;;;;;5074297;28;20045;-77
2022/12/07 01:18:27;;;;;;;5.57;0.88;;;4.90;89.60;;;;;;5074547;28;20036;-75
2022/12/07 01:21:05;;;;;;;9.23;1.38;;;4.90;89.60;;;;;;5074377;28;20051;-76
2022/12/07 01:23:32;;;;;;;5.78;1.90;;;4.90;89.60;;;;;;5057758;28;20205;-75
2022/12/07 01:25:59;;;;;;;6.57;1.00;;;5.00;89.70;;;;;;5057850;28;20037;-77
2022/12/07 01:28:25;;;;;;;6.45;1.15;;;4.90;89.90;;;;;;5074301;28;20476;-77
2022/12/07 01:31:00;;;;;;;5.20;0.90;;;4.90;90.20;;;;;;5040955;28;20036;-77
2022/12/07 01:33:31;;;;;;;5.03;1.00;;;4.90;90.40;;;;;;5074337;28;20036;-78
2022/12/07 01:36:06;;;;;;;8.68;2.17;;;4.90;90.70;;;;;;5074063;28;20040;-75
2022/12/07 01:38:32;;;;;;;8.15;1.20;;;4.80;90.90;;;;;;5074051;28;20072;-75
2022/12/07 01:40:59;;;;;;;8.05;1.05;;;4.70;91.10;;;;;;5074091;28;20532;-77
2022/12/07 01:43:28;;;;;;;5.90;1.15;;;4.70;91.30;;;;;;5057540;28;20048;-76
2022/12/07 01:45:55;;;;;;;7.78;0.90;;;4.70;91.50;;;;;;5073799;28;20053;-77
2022/12/07 01:48:36;;;;;;;7.93;2.55;;;4.70;91.60;;;;;;5057237;28;20041;-76
2022/12/07 01:51:06;;;;;;;5.30;1.15;;;4.70;91.70;;;;;;5074066;28;20037;-77
2022/12/07 01:53:35;;;;;;;4.38;1.10;;;4.60;91.70;;;;;;5073755;28;20041;-76
2022/12/07 01:56:01;;;;;;;5.18;0.95;;;4.60;91.80;;;;;;5073506;28;20040;-77
2022/12/07 01:58:28;;;;;;;11.75;1.33;;;4.70;92.00;;;;;;5040454;28;20401;-76
2022/12/07 02:00:54;;;;;;;5.05;1.63;;;4.70;92.10;;;;;;5040408;28;20083;-76
2022/12/07 02:03:22;;;;;;;7.35;1.40;;;4.70;92.00;;;;;;5040181;28;20103;-75
2022/12/07 02:05:49;;;;;;;7.95;1.38;;;4.70;92.20;;;;;;5057027;28;20037;-77
2022/12/07 02:08:16;;;;;;;10.98;1.20;;;4.80;92.40;;;;;;5056985;28;20040;-76
2022/12/07 02:10:42;;;;;;;11.60;1.40;;;4.70;92.40;;;;;;5073458;28;20032;-77
2022/12/07 02:13:15;;;;;;;8.75;1.10;;;4.70;92.70;;;;;;5073456;28;20036;-76
2022/12/07 02:16:11;;;;;;;8.63;1.92;;;4.70;92.80;;;;;;5073559;28;20052;-77
2022/12/07 02:19:14;;;;;;;5.45;1.00;;;4.70;92.90;;;;;;5056488;28;20036;-75
2022/12/07 02:22:12;;;;;;;6.80;1.10;;;4.70;93.00;;;;;;5073437;28;20370;-77
2022/12/07 02:25:08;;;;;;;12.20;3.22;;;4.60;92.90;;;;;;5072175;28;20040;-76
2022/12/07 02:27:43;;;;;;;12.38;1.40;;;4.60;92.80;;;;;;5072881;28;20401;-76
2022/12/07 02:30:15;;;;;;;5.50;1.10;;;4.60;92.80;;;;;;5073414;28;20070;-78
2022/12/07 02:32:55;;;;;;;6.40;1.50;;;4.60;92.70;;;;;;5073115;28;20040;-77
2022/12/07 02:36:05;;;;;;;11.30;1.77;;;4.70;92.40;;;;;;5072926;28;20041;-77
2022/12/07 02:38:37;;;;;;;11.45;1.40;;;4.70;92.20;;;;;;5055811;28;20079;-76
2022/12/07 02:41:20;;;;;;;8.23;1.55;;;4.60;92.30;;;;;;5072611;28;20048;-77
2022/12/07 02:43:54;;;;;;;6.85;1.38;;;4.60;92.30;;;;;;5072412;28;20047;-76
2022/12/07 02:46:25;;;;;;;6.95;1.80;;;4.60;92.40;;;;;;5055996;28;20056;-78
2022/12/07 02:48:54;;;;;;;7.07;1.27;;;4.60;92.40;;;;;;5073045;28;20385;-76
2022/12/07 02:51:21;;;;;;;11.68;1.95;;;4.60;92.50;;;;;;5072721;28;20120;-77
2022/12/07 02:53:46;;;;;;;12.10;1.55;;;4.60;92.40;;;;;;5072651;28;20045;-76
2022/12/07 02:56:15;;;;;;;4.65;1.27;;;4.70;92.60;;;;;;5056172;28;20047;-76
2022/12/07 02:58:43;;;;;;;6.68;1.58;;;4.70;92.40;;;;;;5072608;28;20037;-76
2022/12/07 03:01:25;;;;;;;3.97;1.20;;;4.70;92.40;;;;;;5072502;28;20055;-76
2022/12/07 03:04:09;;;;;;;5.35;1.20;;;4.70;92.40;;;;;;5072497;28;20094;-75
2022/12/07 03:06:44;;;;;;;5.43;1.10;;;4.70;92.20;;;;;;5056223;28;20388;-76
2022/12/07 03:09:20;;;;;;;7.45;1.27;;;4.70;91.70;;;;;;5072393;28;20044;-76
2022/12/07 03:11:49;;;;;;;10.43;2.45;;;4.70;91.30;;;;;;5072327;28;20072;-76
2022/12/07 03:14:22;;;;;;;9.00;1.00;;;4.70;91.10;;;;;;5072367;28;20036;-76
2022/12/07 03:16:58;;;;;;;5.00;1.10;;;4.60;91.00;;;;;;5072666;28;20044;-77
2022/12/07 03:19:26;;;;;;;3.30;1.05;;;4.60;91.10;;;;;;5072374;28;20048;-77
2022/12/07 03:22:01;;;;;;;5.55;1.30;;;4.70;90.50;;;;;;5072494;28;20040;-77
2022/12/07 03:24:32;;;;;;;12.00;1.60;;;4.60;90.40;;;;;;5055612;28;20090;-76
2022/12/07 03:27:21;;;;;;;6.75;0.95;;;4.60;90.20;;;;;;5072520;28;20423;-76
2022/12/07 03:29:56;;;;;;;13.40;2.17;;;4.70;90.30;;;;;;5072272;28;20048;-77
2022/12/07 03:32:31;;;;;;;10.18;1.38;;;4.70;90.30;;;;;;5055465;28;20492;-76
2022/12/07 03:35:06;;;;;;;8.43;1.73;;;4.80;90.10;;;;;;5071931;28;20094;-77
2022/12/07 03:37:34;;;;;;;8.95;1.20;;;4.70;90.10;;;;;;5055322;28;20044;-78
2022/12/07 03:40:06;;;;;;;6.95;1.00;;;4.70;90.20;;;;;;5054981;28;20040;-75
2022/12/07 03:42:33;;;;;;;7.18;1.13;;;4.70;90.20;;;;;;5071970;28;20479;-76
2022/12/07 03:45:01;;;;;;;2.55;0.50;;;4.70;90.20;;;;;;5054771;28;20527;-75
2022/12/07 03:47:42;;;;;;;2.85;0.57;;;4.70;90.20;;;;;;5071601;28;20580;-77
2022/12/07 03:50:18;;;;;;;4.53;1.00;;;4.80;89.90;;;;;;5071626;28;20040;-75
2022/12/07 03:52:52;;;;;;;3.92;0.65;;;4.80;89.50;;;;;;5054915;28;20041;-77
2022/12/07 03:55:22;;;;;;;5.60;0.85;;;4.80;89.30;;;;;;5071673;28;20041;-77
2022/12/07 03:57:53;;;;;;;6.40;0.95;;;4.80;89.30;;;;;;5071605;28;20079;-77
2022/12/07 04:00:19;;;;;;;4.60;1.48;;;4.80;89.30;;;;;;5055211;28;20075;-76
2022/12/07 04:02:45;;;;;;;7.93;1.45;;;4.80;89.50;;;;;;5055331;28;20396;-75
2022/12/07 04:05:11;;;;;;;8.68;2.45;;;4.80;89.70;;;;;;5054869;28;20037;-75
2022/12/07 04:07:37;;;;;;;3.92;0.85;;;4.70;89.80;;;;;;5071648;28;20090;-75
2022/12/07 04:10:04;;;;;;;6.20;1.23;;;4.70;90.10;;;;;;5055148;28;20128;-77
2022/12/07 04:12:29;;;;;;;7.80;1.08;;;4.70;90.00;;;;;;5055339;28;20105;-75
2022/12/07 04:14:55;;;;;;;5.88;1.30;;;4.60;90.20;;;;;;5071646;28;20131;-77
2022/12/07 04:17:21;;;;;;;7.20;1.10;;;4.60;90.20;;;;;;5071725;28;20412;-77
2022/12/07 04:19:46;;;;;;;5.20;1.20;;;4.60;90.20;;;;;;5071554;28;20043;-78
2022/12/07 04:22:12;;;;;;;4.65;1.20;;;4.60;90.10;;;;;;5055177;28;20161;-77
2022/12/07 04:24:38;;;;;;;6.45;1.00;;;4.60;90.20;;;;;;5054648;28;20044;-77
2022/12/07 04:27:04;;;;;;;7.00;0.95;;;4.60;90.10;;;;;;5071480;28;20040;-77
2022/12/07 04:29:30;;;;;;;5.32;1.08;;;4.60;90.00;;;;;;5054830;28;20426;-77
2022/12/07 04:31:55;;;;;;;7.85;1.00;;;4.60;89.80;;;;;;5055053;28;20086;-77
2022/12/07 04:34:21;;;;;;;7.03;1.42;;;4.50;89.60;;;;;;5054878;28;20135;-77
2022/12/07 04:36:47;;;;;;;10.40;2.40;;;4.50;89.40;;;;;;5071403;28;20041;-77
2022/12/07 04:39:25;;;;;;;5.72;1.33;;;4.50;89.40;;;;;;5055110;28;20082;-75
2022/12/07 04:41:51;;;;;;;6.43;1.10;;;4.50;89.60;;;;;;5054964;28;20415;-76
2022/12/07 04:44:18;;;;;;;7.20;1.92;;;4.50;89.60;;;;;;5071190;28;20547;-76
2022/12/07 04:46:44;;;;;;;6.38;1.08;;;4.50;89.60;;;;;;5054703;28;20045;-77
2022/12/07 04:49:11;;;;;;;5.55;1.85;;;4.50;89.60;;;;;;5071495;28;20041;-75
2022/12/07 04:51:37;;;;;;;6.47;1.48;;;4.50;89.80;;;;;;5056287;28;20040;-77
2022/12/07 04:54:03;;;;;;;6.82;1.30;;;4.50;89.90;;;;;;5058129;28;20044;-77
2022/12/07 04:56:28;;;;;;;5.80;1.70;;;4.50;90.00;;;;;;5058372;28;20063;-77
2022/12/07 04:58:54;;;;;;;4.53;1.08;;;4.60;90.00;;;;;;5041686;28;20047;-76
2022/12/07 05:01:21;;;;;;;9.73;1.02;;;4.60;90.10;;;;;;5074610;28;20047;-77
2022/12/07 05:03:47;;;;;;;6.88;1.15;;;4.60;90.20;;;;;;5057769;28;20040;-75
2022/12/07 05:06:14;;;;;;;8.13;1.20;;;4.60;90.10;;;;;;5058059;28;20036;-75
2022/12/07 05:08:40;;;;;;;4.63;1.23;;;4.70;90.20;;;;;;5058314;28;20039;-76
2022/12/07 05:11:07;;;;;;;2.97;1.40;;;4.70;90.40;;;;;;5058104;28;20036;-76
2022/12/07 05:13:35;;;;;;;8.27;1.00;;;4.80;90.70;;;;;;5057766;28;20041;-76
2022/12/07 05:16:01;;;;;;;5.18;1.30;;;4.80;90.70;;;;;;5074659;28;20032;-76
2022/12/07 05:18:27;;;;;;;5.72;0.88;;;4.90;90.60;;;;;;5041608;28;20058;-76
2022/12/07 05:20:53;;;;;;;5.25;1.52;;;4.80;90.40;;;;;;5074714;28;20494;-75
2022/12/07 05:23:19;;;;;;;3.78;0.93;;;4.80;90.50;;;;;;5074298;28;20408;-77
2022/12/07 05:25:45;;;;;;;5.93;1.10;;;4.80;90.50;;;;;;5057667;28;20071;-77
2022/12/07 05:28:11;;;;;;;6.15;1.40;;;4.80;90.50;;;;;;5074261;28;20045;-76
2022/12/07 05:30:36;;;;;;;5.80;1.60;;;4.70;90.70;;;;;;5074510;28;20079;-76
2022/12/07 05:33:03;;;;;;;7.13;2.13;;;4.60;90.70;;;;;;5074518;28;20496;-76
2022/12/07 05:35:29;;;;;;;5.30;1.38;;;4.60;90.80;;;;;;5057725;28;20127;-77
2022/12/07 05:37:55;;;;;;;4.32;1.30;;;4.60;90.90;;;;;;5074137;28;20041;-76
2022/12/07 05:40:21;;;;;;;7.90;2.22;;;4.60;91.00;;;;;;5041003;28;20397;-76
2022/12/07 05:42:47;;;;;;;8.60;2.10;;;4.60;90.90;;;;;;5057026;28;20036;-75
2022/12/07 05:45:13;;;;;;;7.53;1.52;;;4.50;91.00;;;;;;5023668;28;20056;-77
2022/12/07 05:47:38;;;;;;;6.68;1.40;;;4.40;91.00;;;;;;5073677;28;20052;-73
2022/12/07 05:50:05;;;;;;;7.40;1.42;;;4.40;91.20;;;;;;5073785;28;20106;-76
2022/12/07 05:52:31;;;;;;;8.30;2.13;;;4.40;91.30;;;;;;5073777;28;20499;-77
2022/12/07 05:54:56;;;;;;;15.85;1.83;;;4.40;91.10;;;;;;5057265;28;20120;-77
2022/12/07 05:57:22;;;;;;;10.98;5.53;;;4.40;91.20;;;;;;5057086;28;20044;-76
2022/12/07 05:59:48;;;;;;;10.85;2.10;;;4.40;91.10;;;;;;5057496;28;20131;-77
2022/12/07 06:02:15;;;;;;;15.13;3.30;;;4.40;91.20;;;;;;5024453;28;20044;-77
2022/12/07 06:04:43;;;;;;;7.68;1.98;;;4.30;91.30;;;;;;5056499;28;20040;-76
2022/12/07 06:07:10;;;;;;;11.45;5.53;;;4.40;91.40;;;;;;5056615;28;20091;-77
2022/12/07 06:09:36;;;;;;;19.63;7.82;;;4.30;91.40;;;;;;5056789;28;20434;-77
2022/12/07 06:14:48;;;;;;;43.50;17.48;;;4.30;91.60;;;;;;5073096;28;20045;-77
2022/12/07 06:17:14;;;;;;;21.42;5.55;;;4.20;91.60;;;;;;5052397;28;20094;-79
2022/12/07 06:19:40;;;;;;;10.35;2.35;;;4.20;91.70;;;;;;5056027;28;20036;-78
2022/12/07 06:22:07;;;;;;;14.05;2.17;;;4.10;91.80;;;;;;5072949;28;20043;-75
2022/12/07 06:24:33;;;;;;;9.25;3.08;;;4.20;91.90;;;;;;5072951;28;20069;-79
2022/12/07 06:26:59;;;;;;;14.38;2.58;;;4.10;91.90;;;;;;5056574;28;20063;-78
2022/12/07 06:29:25;;;;;;;7.30;1.80;;;4.10;92.00;;;;;;5072695;28;20503;-79
2022/12/07 06:31:51;;;;;;;15.10;2.25;;;4.10;91.90;;;;;;5055946;28;20033;-76
2022/12/07 06:34:18;;;;;;;7.70;2.50;;;4.00;91.90;;;;;;5072930;28;20036;-77
2022/12/07 06:36:45;;;;;;;10.75;2.38;;;4.00;92.00;;;;;;5072638;28;20047;-76
2022/12/07 06:39:11;;;;;;;8.45;1.75;;;3.90;92.10;;;;;;5072836;28;20037;-79
2022/12/07 06:41:39;;;;;;;6.32;1.70;;;3.90;92.10;;;;;;5055925;28;20036;-77
2022/12/07 06:44:06;;;;;;;7.85;1.45;;;3.80;92.30;;;;;;5055579;28;20091;-75
2022/12/07 06:46:32;;;;;;;11.32;1.80;;;3.80;92.20;;;;;;5055725;28;20488;-78
2022/12/07 06:48:58;;;;;;;4.72;1.63;;;3.80;92.10;;;;;;5072675;28;20043;-77
2022/12/07 06:51:24;;;;;;;11.02;2.08;;;3.80;91.90;;;;;;5055911;28;20480;-77
2022/12/07 06:53:49;;;;;;;10.10;4.15;;;3.80;91.80;;;;;;5055854;28;20036;-78
2022/12/07 06:56:15;;;;;;;9.73;5.55;;;3.80;91.80;;;;;;5056063;28;20075;-77
2022/12/07 06:58:41;;;;;;;11.52;3.22;;;3.70;91.80;;;;;;5055622;28;20076;-78
2022/12/07 07:01:15;;;;;;;7.63;4.93;;;3.80;91.90;;;;;;5072474;28;20091;-78
2022/12/07 07:03:41;;;;;;;12.45;6.55;;;3.90;91.90;;;;;;5072067;28;20048;-76
2022/12/07 07:06:07;;;;;;;9.95;3.65;;;3.90;91.90;;;;;;5055365;28;20071;-79
2022/12/07 07:08:34;;;;;;;8.90;1.88;;;3.90;91.90;;;;;;5071971;28;20068;-79
2022/12/07 07:11:00;;;;;;;9.32;1.92;;;3.90;91.90;;;;;;5038770;28;20484;-77
2022/12/07 07:13:26;;;;;;;7.45;1.40;;;3.90;91.90;;;;;;5071690;28;20119;-77
2022/12/07 07:15:52;;;;;;;5.00;2.00;;;3.90;92.10;;;;;;5071622;28;20068;-75
2022/12/07 07:18:17;;;;;;;7.72;1.80;;;3.90;92.00;;;;;;5055570;28;20072;-77
2022/12/07 07:20:43;;;;;;;10.18;1.85;;;3.90;92.10;;;;;;5055236;28;20036;-74
2022/12/07 07:23:09;;;;;;;10.48;2.17;;;4.00;91.90;;;;;;5054950;28;20083;-78
2022/12/07 07:25:35;;;;;;;8.07;1.88;;;4.10;91.60;;;;;;5038388;28;20082;-78
2022/12/07 07:28:01;;;;;;;9.10;1.10;;;4.10;91.60;;;;;;5055083;28;20037;-76
2022/12/07 07:30:27;;;;;;;17.70;1.80;;;4.10;91.50;;;;;;5038564;28;20043;-77
2022/12/07 07:33:00;;;;;;;8.88;2.40;;;4.20;91.30;;;;;;5071436;28;20480;-78
2022/12/07 07:35:28;;;;;;;7.85;1.40;;;4.20;91.20;;;;;;5071519;28;20125;-78
2022/12/07 07:37:53;;;;;;;8.82;2.00;;;4.30;91.00;;;;;;5055028;28;20080;-77
2022/12/07 07:40:19;;;;;;;7.07;1.83;;;4.30;91.10;;;;;;5071685;28;20515;-79
2022/12/07 07:42:48;;;;;;;9.05;1.85;;;4.20;91.00;;;;;;5038587;28;20157;-77
2022/12/07 07:45:14;;;;;;;6.93;2.15;;;4.20;91.10;;;;;;5070972;28;20562;-77
2022/12/07 07:47:39;;;;;;;5.80;1.75;;;4.20;91.20;;;;;;5055206;28;20045;-78
2022/12/07 07:50:06;;;;;;;9.50;2.03;;;4.20;91.00;;;;;;5038265;28;20047;-76
2022/12/07 07:52:32;;;;;;;8.88;2.58;;;4.30;91.20;;;;;;5038255;28;20090;-76
2022/12/07 07:54:57;;;;;;;9.52;1.70;;;4.30;91.30;;;;;;5055077;28;20393;-77
2022/12/07 07:57:23;;;;;;;10.30;2.20;;;4.30;91.30;;;;;;5054773;28;20102;-78
2022/12/07 07:59:49;;;;;;;8.48;2.80;;;4.30;91.40;;;;;;5054856;28;20427;-77
2022/12/07 08:02:17;;;;;;;13.80;8.60;;;4.20;91.50;;;;;;5038390;28;20107;-76
2022/12/07 08:04:43;;;;;;;19.13;13.02;;;4.20;91.60;;;;;;5071557;28;20203;-77
2022/12/07 08:07:09;;;;;;;18.27;7.68;;;4.20;91.60;;;;;;5071520;28;20046;-77
2022/12/07 08:09:35;;;;;;;10.80;4.75;;;4.10;91.70;;;;;;5054689;28;20079;-79
2022/12/07 08:12:01;;;;;;;12.80;4.22;;;4.10;91.70;;;;;;5054619;28;20044;-80
2022/12/07 08:14:28;;;;;;;12.38;4.40;;;4.10;91.80;;;;;;5055292;28;20434;-79
2022/12/07 08:16:54;;;;;;;11.40;2.80;;;4.00;91.90;;;;;;5038015;28;20041;-78
2022/12/07 08:19:20;;;;;;;11.68;3.50;;;4.10;92.10;;;;;;5054669;28;20127;-78
2022/12/07 08:21:45;;;;;;;12.00;3.75;;;4.10;92.20;;;;;;5071461;28;20041;-77
2022/12/07 08:24:11;;;;;;;7.15;2.05;;;4.30;92.00;;;;;;5071179;28;20492;-78
2022/12/07 08:26:37;;;;;;;5.80;2.38;;;4.40;91.60;;;;;;5055942;28;20048;-78
2022/12/07 08:29:02;;;;;;;5.13;1.60;;;4.50;91.10;;;;;;5041749;28;20040;-81
2022/12/07 08:31:28;;;;;;;3.38;0.82;;;4.60;90.80;;;;;;5058379;28;20517;-80
2022/12/07 08:33:54;;;;;;;5.68;2.55;;;4.60;90.50;;;;;;5058292;28;20117;-77
2022/12/07 08:36:21;;;;;;;9.48;1.17;;;4.60;90.50;;;;;;5075272;28;20040;-78
2022/12/07 08:38:47;;;;;;;4.22;1.08;;;4.60;90.40;;;;;;5075179;28;20498;-78
2022/12/07 08:41:12;;;;;;;5.50;1.13;;;4.60;90.40;;;;;;5074692;28;20076;-76
2022/12/07 08:43:38;;;;;;;5.35;1.40;;;4.50;90.30;;;;;;5074440;28;20127;-79
2022/12/07 08:46:46;;;;;;;4.82;0.90;;;4.60;90.40;;;;;;5058215;28;20091;-78
2022/12/07 08:49:17;;;;;;;5.80;1.05;;;4.50;90.50;;;;;;5071671;28;20492;-78
2022/12/07 08:51:43;;;;;;;5.75;1.20;;;4.60;90.20;;;;;;5057975;28;20500;-76
2022/12/07 08:54:12;;;;;;;2.97;0.85;;;4.60;89.70;;;;;;5074576;28;20054;-79
2022/12/07 08:56:38;;;;;;;4.57;1.40;;;4.60;89.60;;;;;;5070321;28;20048;-77
2022/12/07 08:59:05;;;;;;;5.95;1.40;;;4.60;89.40;;;;;;5058174;28;20051;-76
2022/12/07 09:01:31;;;;;;;7.82;1.42;;;4.60;89.60;;;;;;5074782;28;20048;-78
2022/12/07 09:03:56;;;;;;;13.05;3.45;;;4.60;89.80;;;;;;5057814;28;20377;-79
2022/12/07 09:06:22;;;;;;;5.68;2.83;;;4.50;89.70;;;;;;5074377;28;20040;-77
2022/12/07 09:08:57;;;;;;;4.90;1.23;;;4.40;89.80;;;;;;5057938;28;20127;-79
2022/12/07 09:11:23;;;;;;;6.30;1.67;;;4.50;90.00;;;;;;5073971;28;20040;-76
2022/12/07 09:13:49;;;;;;;6.65;1.58;;;4.40;89.90;;;;;;5057320;28;20101;-79
2022/12/07 09:16:15;;;;;;;7.35;1.20;;;4.40;89.70;;;;;;5074213;28;20044;-76
2022/12/07 09:18:41;;;;;;;5.93;1.30;;;4.40;89.80;;;;;;5040851;28;20040;-75
2022/12/07 09:21:07;;;;;;;6.07;1.33;;;4.40;89.90;;;;;;5041287;28;20041;-79
2022/12/07 09:23:33;;;;;;;6.20;1.48;;;4.40;90.00;;;;;;5057356;28;20503;-75
2022/12/07 09:26:04;;;;;;;6.85;1.98;;;4.40;90.00;;;;;;5073843;28;20429;-78
2022/12/07 09:28:31;;;;;;;4.88;1.40;;;4.40;90.20;;;;;;5073838;28;20044;-77
2022/12/07 09:30:56;;;;;;;8.27;2.08;;;4.50;90.30;;;;;;5074074;28;20124;-78
2022/12/07 09:33:22;;;;;;;6.85;2.00;;;4.60;90.30;;;;;;5056936;28;20498;-74
2022/12/07 09:35:49;;;;;;;7.38;1.67;;;4.60;90.30;;;;;;5057095;28;20400;-79
2022/12/07 09:38:16;;;;;;;8.93;2.08;;;4.70;90.40;;;;;;5056957;28;20408;-76
2022/12/07 09:40:43;;;;;;;10.00;1.73;;;4.80;90.60;;;;;;5056909;28;20048;-75
2022/12/07 09:43:15;;;;;;;7.45;1.98;;;4.90;90.50;;;;;;5040574;28;20052;-77
2022/12/07 09:45:43;;;;;;;10.63;1.92;;;4.90;90.40;;;;;;5073210;28;20404;-76
2022/12/07 09:48:17;;;;;;;8.45;2.33;;;4.90;90.40;;;;;;5073503;28;20500;-78
2022/12/07 09:50:43;;;;;;;5.07;1.85;;;4.90;90.30;;;;;;5073785;28;20079;-77
2022/12/07 09:53:25;;;;;;;7.60;1.63;;;4.80;90.40;;;;;;5056797;28;20072;-78
2022/12/07 09:55:51;;;;;;;6.30;1.48;;;4.80;90.50;;;;;;5073207;28;20036;-78
2022/12/07 09:58:35;;;;;;;7.97;1.98;;;5.00;90.60;;;;;;5073286;28;20036;-76
2022/12/07 10:01:21;;;;;;;6.90;1.57;;;5.00;90.50;;;;;;5073321;28;20492;-75
2022/12/07 10:03:54;;;;;;;7.47;1.60;;;5.10;90.40;;;;;;5073073;28;20051;-78
2022/12/07 10:06:20;;;;;;;8.70;1.50;;;5.20;90.30;;;;;;5056598;28;20033;-76
2022/12/07 10:08:46;;;;;;;6.72;1.63;;;5.30;89.90;;;;;;5040279;28;20032;-78
2022/12/07 10:11:14;;;;;;;8.45;1.38;;;5.50;89.40;;;;;;5056540;28;20488;-77
2022/12/07 10:13:47;;;;;;;5.32;1.65;;;5.50;88.90;;;;;;5056859;28;20044;-77
2022/12/07 10:16:26;;;;;;;7.28;1.35;;;5.60;88.30;;;;;;5073357;28;20025;-77
2022/12/07 10:18:52;;;;;;;4.70;1.10;;;5.70;87.80;;;;;;5056520;28;20071;-78
2022/12/07 10:21:21;;;;;;;5.55;1.63;;;5.80;87.20;;;;;;5056195;28;20071;-77
2022/12/07 10:24:14;;;;;;;8.93;2.17;;;5.90;86.50;;;;;;5072787;28;20094;-78
2022/12/07 10:26:46;;;;;;;6.93;2.40;;;6.00;86.50;;;;;;5070103;28;20091;-76
2022/12/07 10:29:14;;;;;;;8.55;1.50;;;6.10;86.00;;;;;;5072879;28;20046;-77
2022/12/07 10:31:40;;;;;;;2.78;0.93;;;6.20;85.70;;;;;;5072677;28;20041;-78
2022/12/07 10:34:26;;;;;;;3.90;1.75;;;6.20;85.50;;;;;;5056037;28;20051;-76
2022/12/07 10:36:53;;;;;;;8.55;1.58;;;6.20;85.70;;;;;;5072687;28;20276;-76
2022/12/07 10:39:21;;;;;;;45.20;22.70;;;6.10;85.70;;;;;;5072654;28;20080;-76
2022/12/07 10:41:56;;;;;;;33.20;16.02;;;6.10;85.90;;;;;;5072700;28;20127;-75
2022/12/07 10:44:27;;;;;;;7.80;2.38;;;6.00;85.70;;;;;;5072427;28;20067;-76
2022/12/07 10:47:02;;;;;;;2.75;1.13;;;6.00;85.30;;;;;;5072570;28;20056;-77
2022/12/07 10:49:37;;;;;;;;;;;5.90;84.90;;;;;;5072404;28;20044;-75
2022/12/07 10:52:12;;;;;;;;;;;5.80;85.40;;;;;;5073058;28;20253;-79
2022/12/07 10:54:48;;;;;;;;;;;5.80;85.30;;;;;;5073146;28;20280;-76
2022/12/07 10:57:43;;;;;;;9.48;1.05;;;5.80;85.30;;;;;;5072631;28;20326;-76
2022/12/07 11:00:18;;;;;;;3.25;1.13;;;5.70;85.60;;;;;;5071812;28;20056;-77
2022/12/07 11:03:36;;;;;;;5.07;0.90;;;5.60;85.80;;;;;;5072160;28;20370;-76
2022/12/07 11:06:20;;;;;;;7.18;1.05;;;5.60;86.30;;;;;;5055622;28;20060;-77
2022/12/07 11:08:49;;;;;;;4.43;1.33;;;5.60;86.60;;;;;;5072527;28;20082;-78
2022/12/07 11:11:21;;;;;;;5.93;1.20;;;5.60;86.70;;;;;;5072036;28;20079;-77
2022/12/07 11:14:19;;;;;;;3.60;1.17;;;5.50;87.00;;;;;;5055586;28;20430;-78
2022/12/07 11:16:57;;;;;;;5.07;1.30;;;5.50;87.40;;;;;;5072305;28;20396;-77
2022/12/07 11:19:50;;;;;;;7.13;1.23;;;5.50;87.50;;;;;;5055272;28;20090;-77
2022/12/07 11:22:39;;;;;;;7.68;1.60;;;5.50;87.70;;;;;;5051116;28;20041;-78
2022/12/07 11:25:38;;;;;;;4.93;1.20;;;5.50;87.80;;;;;;5054900;28;20040;-77
2022/12/07 11:28:14;;;;;;;6.28;2.47;;;5.50;87.80;;;;;;5071813;28;20159;-77
2022/12/07 11:31:01;;;;;;;7.95;2.03;;;5.60;87.80;;;;;;5055494;28;20441;-76
2022/12/07 11:34:00;;;;;;;4.57;1.10;;;5.60;87.40;;;;;;5071846;28;20032;-77
2022/12/07 11:36:40;;;;;;;6.57;1.00;;;5.70;87.40;;;;;;5054951;28;20453;-78
2022/12/07 11:39:36;;;;;;;4.30;1.23;;;5.70;87.60;;;;;;5055284;28;20511;-78
2022/12/07 11:42:18;;;;;;;11.68;2.72;;;5.70;87.60;;;;;;5070897;28;20105;-78
2022/12/07 11:44:58;;;;;;;8.25;1.45;;;5.80;88.20;;;;;;5071409;28;20088;-77
2022/12/07 11:47:27;;;;;;;8.35;1.40;;;5.70;88.30;;;;;;5071931;28;20392;-78
2022/12/07 11:50:15;;;;;;;7.65;1.17;;;5.70;88.70;;;;;;5071577;28;20071;-78
2022/12/07 11:52:44;;;;;;;5.20;1.05;;;5.70;88.90;;;;;;5054778;28;20044;-77
2022/12/07 11:55:26;;;;;;;2.80;1.50;;;5.70;88.90;;;;;;5054748;28;20047;-77
2022/12/07 11:58:00;;;;;;;3.63;0.80;;;5.60;89.00;;;;;;5071538;28;20037;-77
2022/12/07 12:00:26;;;;;;;;;;;5.70;89.10;;;;;;5056524;28;20102;-78
2022/12/07 12:03:03;;;;;;;6.47;2.95;;;5.70;89.10;;;;;;5058969;28;20012;-78
2022/12/07 12:05:29;;;;;;;5.85;1.33;;;5.70;89.10;;;;;;5075552;28;20098;-77
2022/12/07 12:08:21;;;;;;;5.05;1.25;;;5.80;89.00;;;;;;5075532;28;20498;-76
2022/12/07 12:11:02;;;;;;;5.47;2.08;;;5.90;88.70;;;;;;5075803;28;20040;-76
2022/12/07 12:14:09;;;;;;;9.90;2.20;;;6.00;88.40;;;;;;5075747;28;20430;-77
2022/12/07 12:17:06;;;;;;;9.05;1.60;;;6.00;88.30;;;;;;5065522;28;20049;-78
2022/12/07 12:20:18;;;;;;;4.55;1.40;;;6.10;88.10;;;;;;5075412;28;20036;-78
2022/12/07 12:22:50;;;;;;;4.40;1.88;;;5.90;87.90;;;;;;5057428;28;20040;-77
2022/12/07 12:25:54;;;;;;;5.45;1.60;;;5.90;87.90;;;;;;5056576;28;20102;-78
2022/12/07 12:28:38;;;;;;;4.20;1.65;;;5.80;87.60;;;;;;5057241;28;20048;-78
2022/12/07 12:31:30;;;;;;;4.72;1.27;;;5.80;87.80;;;;;;5073935;28;20044;-80
2022/12/07 12:34:01;;;;;;;13.40;4.25;;;5.80;87.60;;;;;;5058518;28;20426;-78
2022/12/07 12:36:45;;;;;;;7.38;2.78;;;5.70;87.90;;;;;;5074944;28;20079;-77
2022/12/07 12:39:18;;;;;;;4.75;1.20;;;5.70;88.20;;;;;;5058301;28;20044;-78
2022/12/07 12:44:17;;;;;;;7.00;1.35;;;5.80;88.30;;;;;;5074821;28;20136;-77
2022/12/07 12:46:57;;;;;;;5.93;1.15;;;5.90;88.00;;;;;;5058423;28;20460;-77
2022/12/07 12:49:22;;;;;;;4.78;1.10;;;5.90;88.00;;;;;;5058392;28;20037;-77
2022/12/07 12:51:54;;;;;;;8.27;1.23;;;6.00;87.70;;;;;;5074902;28;20040;-77
2022/12/07 12:54:23;;;;;;;7.60;1.67;;;6.10;87.70;;;;;;5074572;28;20040;-77
2022/12/07 12:57:26;;;;;;;8.40;1.13;;;6.10;87.60;;;;;;5074519;28;20044;-79
2022/12/07 12:59:52;;;;;;;13.38;3.53;;;6.10;87.70;;;;;;5057886;28;20044;-77
2022/12/07 13:02:21;;;;;;;4.20;1.00;;;6.10;87.40;;;;;;5074422;28;20040;-78
2022/12/07 13:05:01;;;;;;;5.80;1.23;;;6.00;87.70;;;;;;5057749;28;20036;-78
2022/12/07 13:07:46;;;;;;;3.92;0.73;;;6.00;88.00;;;;;;5074585;28;20078;-76
2022/12/07 13:10:28;;;;;;;3.35;1.13;;;5.90;87.90;;;;;;5074390;28;20040;-78
2022/12/07 13:13:14;;;;;;;7.13;1.10;;;5.70;87.70;;;;;;5056825;28;20067;-77
2022/12/07 13:15:46;;;;;;;23.70;8.77;;;5.60;87.40;;;;;;5057555;28;20044;-77
2022/12/07 13:18:27;;;;;;;155.48;51.95;;;5.50;87.70;;;;;;5074419;28;20044;-76
2022/12/07 13:20:59;;;;;;;34.15;14.23;;;5.40;88.10;;;;;;5074136;28;20059;-79
2022/12/07 13:23:43;;;;;;;6.70;2.33;;;5.40;88.20;;;;;;5057456;28;20044;-78